createdAt,value
2023-04-21T00:00:40.544Z,99922.84
2023-04-21T00:05:42.908Z,99907.84
2023-04-21T00:10:46.795Z,99909.13
2023-04-21T00:15:48.674Z,99902.63
2023-04-21T00:20:50.362Z,99899.47
2023-04-21T00:25:52.440Z,99901.59
2023-04-21T00:30:54.489Z,99902.97
2023-04-21T00:35:59.049Z,99905.19
2023-04-21T00:41:02.634Z,99908.25
2023-04-21T00:46:05.292Z,99899.38
2023-04-21T00:51:06.927Z,99899.25
2023-04-21T00:56:10.880Z,99899.22
2023-04-21T01:01:13.676Z,99902.75
2023-04-21T01:06:19.864Z,99899.84
2023-04-21T01:11:21.703Z,99889.72
2023-04-21T01:16:24.169Z,99888.44
2023-04-21T01:21:29.129Z,99885.09
2023-04-21T01:26:30.850Z,99881.63
2023-04-21T01:31:32.483Z,99884.38
2023-04-21T01:36:36.184Z,99882.50
2023-04-21T01:41:37.821Z,99879.25
2023-04-21T01:46:39.478Z,99872.53
2023-04-21T01:51:41.105Z,99880.84
2023-04-21T01:56:42.807Z,99870.34
2023-04-21T02:01:44.521Z,99866.13
2023-04-21T02:06:46.327Z,99870.03
2023-04-21T02:11:48.045Z,99864.84
2023-04-21T02:16:49.825Z,99858.94
2023-04-21T02:21:51.636Z,99866.69
2023-04-21T02:26:58.282Z,99863.06
2023-04-21T02:32:14.255Z,99861.72
2023-04-21T02:37:21.017Z,99859.66
2023-04-21T02:42:22.652Z,99860.78
2023-04-21T02:47:24.350Z,99859.19
2023-04-21T02:52:26.015Z,99863.06
2023-04-21T02:57:27.739Z,99856.91
2023-04-21T03:02:29.471Z,99859.06
2023-04-21T03:07:31.240Z,99861.38
2023-04-21T03:12:32.999Z,99859.81
2023-04-21T03:17:34.689Z,99856.91
2023-04-21T03:22:36.375Z,99864.13
2023-04-21T03:27:38.110Z,99866.44
2023-04-21T03:32:39.727Z,99861.25
2023-04-21T03:37:41.401Z,99858.72
2023-04-21T03:42:43.195Z,99852.19
2023-04-21T03:47:44.873Z,99857.63
2023-04-21T03:52:46.536Z,99866.09
2023-04-21T03:57:48.191Z,99861.03
2023-04-21T04:02:49.931Z,99857.16
2023-04-21T04:07:51.726Z,99863.91
2023-04-21T04:12:53.373Z,99874.31
2023-04-21T04:17:55.528Z,99878.75
2023-04-21T04:22:57.234Z,99888.38
2023-04-21T04:27:58.861Z,99881.19
2023-04-21T04:33:00.513Z,99889.16
2023-04-21T04:38:02.310Z,99888.28
2023-04-21T04:43:03.951Z,99882.19
2023-04-21T04:48:06.120Z,99892.47
2023-04-21T04:53:07.764Z,99883.50
2023-04-21T04:58:09.385Z,99891.03
2023-04-21T05:03:11.127Z,99887.91
2023-04-21T05:08:13.281Z,99892.00
2023-04-21T05:13:17.713Z,99885.22
2023-04-21T05:18:19.366Z,99890.09
2023-04-21T05:23:21.222Z,99897.84
2023-04-21T05:28:23.274Z,99902.06
2023-04-21T05:33:26.855Z,99905.56
2023-04-21T05:38:28.609Z,99904.28
2023-04-21T05:43:33.408Z,99901.28
2023-04-21T05:48:35.457Z,99894.53
2023-04-21T05:53:40.344Z,99893.31
2023-04-21T05:58:42.049Z,99893.50
2023-04-21T06:03:43.969Z,99889.81
2023-04-21T06:08:45.749Z,99888.69
2023-04-21T06:13:47.893Z,99883.53
2023-04-21T06:18:49.753Z,99883.69
2023-04-21T06:23:51.453Z,99878.69
2023-04-21T06:28:53.176Z,99874.94
2023-04-21T06:33:54.781Z,99860.44
2023-04-21T06:38:56.410Z,99860.63
2023-04-21T06:43:58.037Z,99863.56
2023-04-21T06:48:59.663Z,99856.22
2023-04-21T06:54:01.628Z,99852.75
2023-04-21T06:59:03.393Z,99846.50
2023-04-21T07:04:06.923Z,99849.84
2023-04-21T07:09:08.856Z,99835.59
2023-04-21T07:14:11.056Z,99837.75
2023-04-21T07:19:12.789Z,99836.78
2023-04-21T07:24:14.447Z,99834.81
2023-04-21T07:29:16.243Z,99824.00
2023-04-21T07:34:17.889Z,99825.13
2023-04-21T07:39:19.673Z,99814.09
2023-04-21T07:44:21.530Z,99811.53
2023-04-21T07:49:23.481Z,99805.63
2023-04-21T07:54:25.484Z,99795.75
2023-04-21T07:59:27.155Z,99795.47
2023-04-21T08:04:29.058Z,99796.00
2023-04-21T08:09:31.102Z,99788.38
2023-04-21T08:14:32.879Z,99789.75
2023-04-21T08:19:34.522Z,99791.13
2023-04-21T08:24:36.212Z,99783.09
2023-04-21T08:29:38.082Z,99774.69
2023-04-21T08:34:39.812Z,99775.50
2023-04-21T08:39:41.791Z,99770.91
2023-04-21T08:44:43.844Z,99766.50
2023-04-21T08:49:46.242Z,99764.41
2023-04-21T08:54:52.020Z,99756.63
2023-04-21T08:59:55.826Z,99756.19
2023-04-21T09:04:59.999Z,99754.66
2023-04-21T09:10:03.409Z,99748.53
2023-04-21T09:15:06.112Z,99740.19
2023-04-21T09:20:16.476Z,99747.47
2023-04-21T09:25:22.494Z,99750.56
2023-04-21T09:30:24.511Z,99734.78
2023-04-21T09:35:29.918Z,99739.28
2023-04-21T09:40:31.592Z,99731.19
2023-04-21T09:45:40.315Z,99727.56
2023-04-21T09:51:17.345Z,99725.81
2023-04-21T09:56:05.964Z,99711.94
2023-04-21T10:01:09.589Z,99717.50
2023-04-21T10:06:11.875Z,99726.00
2023-04-21T10:11:14.754Z,99710.00
2023-04-21T10:16:18.042Z,99700.75
2023-04-21T10:21:22.153Z,99685.31
2023-04-21T10:26:24.780Z,99690.13
2023-04-21T10:31:36.712Z,99682.44
2023-04-21T10:36:57.344Z,99684.69
2023-04-21T10:42:23.029Z,99690.19
2023-04-21T10:47:38.670Z,99678.03
2023-04-21T10:52:44.664Z,99685.34
2023-04-21T10:57:46.784Z,99683.56
2023-04-21T11:03:03.297Z,99668.16
2023-04-21T11:08:13.165Z,99652.00
2023-04-21T11:13:14.838Z,99660.16
2023-04-21T11:18:18.103Z,99656.72
2023-04-21T11:23:19.719Z,99656.94
2023-04-21T11:28:22.160Z,99644.66
2023-04-21T11:33:23.848Z,99657.94
2023-04-21T11:38:25.729Z,99653.91
2023-04-21T11:43:27.436Z,99641.69
2023-04-21T11:48:30.058Z,99639.44
2023-04-21T11:53:33.018Z,99636.00
2023-04-21T11:58:34.978Z,99625.28
2023-04-21T12:03:37.906Z,99631.00
2023-04-21T12:08:40.742Z,99634.22
2023-04-21T12:13:42.409Z,99634.50
2023-04-21T12:18:44.464Z,99629.13
2023-04-21T12:23:46.066Z,99621.72
2023-04-21T12:28:47.672Z,99625.44
2023-04-21T12:33:49.366Z,99603.16
2023-04-21T12:38:51.203Z,99617.22
2023-04-21T12:43:52.886Z,99615.72
2023-04-21T12:48:54.612Z,99613.06
2023-04-21T12:53:56.262Z,99615.41
2023-04-21T12:58:58.422Z,99616.16
2023-04-21T13:04:00.400Z,99604.69
2023-04-21T13:09:02.391Z,99607.91
2023-04-21T13:14:06.753Z,99603.63
2023-04-21T13:19:08.461Z,99594.16
2023-04-21T13:24:14.286Z,99583.97
2023-04-21T13:29:16.351Z,99579.41
2023-04-21T13:34:17.967Z,99575.47
2023-04-21T13:39:19.911Z,99579.50
2023-04-21T13:44:21.698Z,99554.06
2023-04-21T13:49:23.300Z,99556.50
2023-04-21T13:54:25.657Z,99560.22
2023-04-21T13:59:29.036Z,99542.56
2023-04-21T14:04:31.290Z,99535.78
2023-04-21T14:09:33.244Z,99518.66
2023-04-21T14:14:38.606Z,99525.16
2023-04-21T14:19:40.895Z,99521.59
2023-04-21T14:24:42.664Z,99514.84
2023-04-21T14:29:44.266Z,99519.38
2023-04-21T14:34:46.443Z,99516.28
2023-04-21T14:39:48.073Z,99510.09
2023-04-21T14:44:49.685Z,99518.78
2023-04-21T14:49:55.053Z,99506.69
2023-04-21T14:54:57.066Z,99499.84
2023-04-21T14:59:58.707Z,99495.88
2023-04-21T15:05:01.564Z,99490.94
2023-04-21T15:10:03.585Z,99480.09
2023-04-21T15:15:06.719Z,99479.63
2023-04-21T15:20:10.217Z,99481.97
2023-04-21T15:25:11.934Z,99481.94
2023-04-21T15:30:14.037Z,99479.88
2023-04-21T15:35:15.674Z,99474.16
2023-04-21T15:40:17.303Z,99472.28
2023-04-21T15:45:18.991Z,99467.66
2023-04-21T15:50:20.747Z,99448.81
2023-04-21T15:55:23.115Z,99457.22
2023-04-21T16:00:24.819Z,99458.56
2023-04-21T16:05:29.140Z,99452.97
2023-04-21T16:10:31.303Z,99441.75
2023-04-21T16:15:33.052Z,99447.56
2023-04-21T16:20:36.086Z,99445.34
2023-04-21T16:25:38.032Z,99437.53
2023-04-21T16:30:43.642Z,99445.75
2023-04-21T16:35:46.010Z,99437.06
2023-04-21T16:40:47.956Z,99445.06
2023-04-21T16:45:49.687Z,99438.56
2023-04-21T16:50:53.875Z,99432.28
2023-04-21T16:55:55.816Z,99435.84
2023-04-21T17:00:57.639Z,99432.84
2023-04-21T17:05:59.400Z,99421.31
2023-04-21T17:11:01.133Z,99422.34
2023-04-21T17:16:03.028Z,99423.94
2023-04-21T17:21:06.295Z,99424.38
2023-04-21T17:26:09.419Z,99427.56
2023-04-21T17:31:16.161Z,99428.00
2023-04-21T17:36:18.605Z,99425.56
2023-04-21T17:41:20.252Z,99432.53
2023-04-21T17:46:24.909Z,99426.66
2023-04-21T17:51:28.539Z,99433.06
2023-04-21T17:56:30.206Z,99432.16
2023-04-21T18:01:31.904Z,99435.59
2023-04-21T18:06:34.443Z,99442.72
2023-04-21T18:11:36.069Z,99445.53
2023-04-21T18:16:37.777Z,99450.13
2023-04-21T18:21:39.500Z,99453.06
2023-04-21T18:26:41.155Z,99449.31
2023-04-21T18:31:42.814Z,99449.09
2023-04-21T18:36:44.472Z,99467.84
2023-04-21T18:41:48.481Z,99455.41
2023-04-21T18:46:50.268Z,99458.47
2023-04-21T18:51:52.142Z,99462.94
2023-04-21T18:56:53.862Z,99468.44
2023-04-21T19:01:55.945Z,99472.97
2023-04-21T19:06:57.630Z,99472.16
2023-04-21T19:11:59.336Z,99471.28
2023-04-21T19:17:00.961Z,99466.53
2023-04-21T19:22:04.251Z,99472.22
2023-04-21T19:27:06.558Z,99474.94
2023-04-21T19:32:08.296Z,99470.28
2023-04-21T19:37:10.160Z,99467.16
2023-04-21T19:42:11.910Z,99466.78
2023-04-21T19:47:13.638Z,99469.34
2023-04-21T19:52:15.231Z,99477.88
2023-04-21T19:57:17.551Z,99472.66
2023-04-21T20:02:19.693Z,99482.44
2023-04-21T20:07:21.511Z,99473.00
2023-04-21T20:12:23.173Z,99467.38
2023-04-21T20:17:24.878Z,99477.78
2023-04-21T20:22:26.489Z,99479.53
2023-04-21T20:27:28.106Z,99479.34
2023-04-21T20:32:29.778Z,99486.31
2023-04-21T20:37:33.580Z,99481.44
2023-04-21T20:42:35.266Z,99482.84
2023-04-21T20:47:37.092Z,99498.50
2023-04-21T20:52:38.760Z,99489.66
2023-04-21T20:57:40.405Z,99488.53
2023-04-21T21:02:42.366Z,99492.06
2023-04-21T21:07:44.098Z,99500.59
2023-04-21T21:12:45.814Z,99506.34
2023-04-21T21:17:47.507Z,99505.38
2023-04-21T21:22:49.196Z,99509.63
2023-04-21T21:27:50.847Z,99512.47
2023-04-21T21:32:53.969Z,99515.06
2023-04-21T21:37:55.626Z,99530.03
2023-04-21T21:42:57.239Z,99523.03
2023-04-21T21:47:58.990Z,99529.19
2023-04-21T21:53:00.634Z,99535.78
2023-04-21T21:58:04.021Z,99537.78
2023-04-21T22:03:06.339Z,99535.00
2023-04-21T22:08:08.082Z,99548.88
2023-04-21T22:13:10.141Z,99551.72
2023-04-21T22:18:11.783Z,99558.09
2023-04-21T22:23:13.483Z,99545.34
2023-04-21T22:28:15.088Z,99551.56
2023-04-21T22:33:16.730Z,99555.06
2023-04-21T22:38:18.394Z,99558.41
2023-04-21T22:43:20.070Z,99557.75
2023-04-21T22:48:21.736Z,99554.34
2023-04-21T22:53:23.331Z,99555.94
2023-04-21T22:58:26.302Z,99547.22
2023-04-21T23:03:28.093Z,99553.03
2023-04-21T23:08:30.031Z,99558.34
2023-04-21T23:13:34.757Z,99556.25
2023-04-21T23:18:36.438Z,99552.72
2023-04-21T23:23:38.086Z,99554.44
2023-04-21T23:28:39.707Z,99551.06
2023-04-21T23:33:41.326Z,99552.47
2023-04-21T23:38:42.955Z,99553.16
2023-04-21T23:43:44.706Z,99542.84
2023-04-21T23:48:46.329Z,99542.84
2023-04-21T23:53:48.010Z,99542.00
2023-04-21T23:58:49.768Z,99551.03
